createdAt,value
2022-12-12T00:01:25.526Z,25.77
2022-12-12T00:03:53.326Z,26.27
2022-12-12T00:06:21.858Z,25.30
2022-12-12T00:08:49.036Z,24.17
2022-12-12T00:11:17.750Z,25.87
2022-12-12T00:13:44.695Z,28.37
2022-12-12T00:16:12.466Z,21.87
2022-12-12T00:18:41.685Z,23.00
2022-12-12T00:21:15.350Z,24.00
2022-12-12T00:23:42.288Z,26.20
2022-12-12T00:26:16.905Z,22.90
2022-12-12T00:28:43.648Z,20.93
2022-12-12T00:31:10.869Z,22.07
2022-12-12T00:33:37.552Z,20.03
2022-12-12T00:36:05.158Z,23.60
2022-12-12T00:38:31.897Z,20.07
2022-12-12T00:41:00.733Z,19.67
2022-12-12T00:43:28.187Z,20.83
2022-12-12T00:45:59.020Z,19.33
2022-12-12T00:48:26.167Z,21.33
2022-12-12T00:50:54.583Z,24.60
2022-12-12T00:53:23.052Z,19.60
2022-12-12T00:55:59.845Z,31.47
2022-12-12T00:58:27.109Z,32.23
2022-12-12T01:00:54.502Z,29.53
2022-12-12T01:03:21.797Z,31.83
2022-12-12T01:05:48.954Z,25.57
2022-12-12T01:08:15.893Z,24.60
2022-12-12T01:10:42.964Z,23.20
2022-12-12T01:13:10.031Z,30.53
2022-12-12T01:15:37.072Z,27.37
2022-12-12T01:18:04.038Z,25.17
2022-12-12T01:20:31.498Z,25.93
2022-12-12T01:22:58.231Z,33.03
2022-12-12T01:25:25.264Z,27.17
2022-12-12T01:27:52.042Z,30.10
2022-12-12T01:30:21.605Z,25.43
2022-12-12T01:32:49.322Z,23.30
2022-12-12T01:35:16.578Z,21.30
2022-12-12T01:37:43.429Z,25.37
2022-12-12T01:40:18.576Z,21.57
2022-12-12T01:42:45.482Z,23.20
2022-12-12T01:45:50.110Z,17.90
2022-12-12T01:48:16.932Z,18.63
2022-12-12T01:50:44.707Z,18.50
2022-12-12T01:53:16.064Z,18.53
2022-12-12T01:55:43.258Z,15.33
2022-12-12T01:58:10.150Z,17.17
2022-12-12T02:00:37.889Z,19.70
2022-12-12T02:03:04.647Z,17.70
2022-12-12T02:05:40.216Z,17.33
2022-12-12T02:08:08.614Z,14.40
2022-12-12T02:10:35.646Z,16.20
2022-12-12T02:13:07.263Z,16.67
2022-12-12T02:15:48.263Z,12.53
2022-12-12T02:18:29.214Z,16.37
2022-12-12T02:21:11.077Z,14.47
2022-12-12T02:23:56.674Z,14.13
2022-12-12T02:26:46.383Z,12.83
2022-12-12T02:29:38.838Z,12.07
2022-12-12T02:32:14.446Z,13.70
2022-12-12T02:34:53.507Z,11.43
2022-12-12T02:37:26.508Z,11.37
2022-12-12T02:40:15.710Z,11.80
2022-12-12T02:42:54.870Z,11.27
2022-12-12T02:45:37.653Z,11.57
2022-12-12T02:48:35.164Z,12.37
2022-12-12T02:51:03.985Z,12.27
2022-12-12T02:53:31.664Z,16.10
2022-12-12T02:56:26.321Z,12.47
2022-12-12T02:58:53.374Z,14.43
2022-12-12T03:01:39.034Z,12.60
2022-12-12T03:04:38.230Z,12.67
2022-12-12T03:07:44.472Z,10.00
2022-12-12T03:10:26.264Z,10.97
2022-12-12T03:13:00.899Z,11.53
2022-12-12T03:15:41.689Z,10.67
2022-12-12T03:18:17.751Z,11.67
2022-12-12T03:20:56.680Z,11.80
2022-12-12T03:23:34.046Z,10.67
2022-12-12T03:26:23.670Z,12.17
2022-12-12T03:29:05.780Z,12.70
2022-12-12T03:31:37.182Z,11.83
2022-12-12T03:34:17.151Z,12.83
2022-12-12T03:36:56.270Z,12.37
2022-12-12T03:39:42.072Z,13.63
2022-12-12T03:42:21.064Z,15.63
2022-12-12T03:44:53.002Z,16.00
2022-12-12T03:47:31.172Z,14.73
2022-12-12T03:50:23.104Z,12.37
2022-12-12T03:53:03.354Z,13.07
2022-12-12T03:55:56.890Z,11.00
2022-12-12T03:58:31.425Z,11.53
2022-12-12T04:01:00.842Z,11.73
2022-12-12T04:03:40.985Z,11.67
2022-12-12T04:06:26.837Z,11.80
2022-12-12T04:09:15.853Z,10.63
2022-12-12T04:12:12.855Z,13.47
2022-12-12T04:15:01.879Z,12.13
2022-12-12T04:17:42.750Z,14.00
2022-12-12T04:20:37.908Z,13.97
2022-12-12T04:23:18.160Z,15.63
2022-12-12T04:26:12.693Z,13.83
2022-12-12T04:28:44.339Z,18.03
2022-12-12T04:31:13.258Z,21.40
2022-12-12T04:33:47.751Z,15.63
2022-12-12T04:36:18.070Z,16.63
2022-12-12T04:38:47.457Z,20.37
2022-12-12T04:41:16.225Z,18.20
2022-12-12T04:43:47.704Z,23.43
2022-12-12T04:46:20.579Z,13.77
2022-12-12T04:48:53.713Z,15.73
2022-12-12T04:51:26.842Z,16.37
2022-12-12T04:54:03.480Z,15.73
2022-12-12T04:56:34.177Z,11.53
2022-12-12T04:59:02.660Z,13.37
2022-12-12T05:01:34.517Z,10.30
2022-12-12T05:04:07.681Z,15.43
2022-12-12T05:06:42.903Z,13.10
2022-12-12T05:09:11.740Z,14.90
2022-12-12T05:11:38.895Z,15.83
2022-12-12T05:14:09.362Z,16.63
2022-12-12T05:16:44.810Z,10.87
2022-12-12T05:19:11.695Z,10.80
2022-12-12T05:21:38.691Z,12.87
2022-12-12T05:24:05.734Z,11.90
2022-12-12T05:26:34.408Z,12.37
2022-12-12T05:29:06.920Z,10.00
2022-12-12T05:31:35.587Z,14.87
2022-12-12T05:34:03.712Z,12.87
2022-12-12T05:36:30.898Z,12.93
2022-12-12T05:38:57.834Z,12.70
2022-12-12T05:41:25.001Z,17.43
2022-12-12T05:43:52.185Z,16.70
2022-12-12T05:46:19.259Z,15.63
2022-12-12T05:48:50.520Z,20.50
2022-12-12T05:51:18.489Z,16.13
2022-12-12T05:53:46.329Z,15.40
2022-12-12T05:56:14.308Z,18.60
2022-12-12T05:58:41.777Z,19.00
2022-12-12T06:01:09.139Z,16.23
2022-12-12T06:03:36.329Z,15.13
2022-12-12T06:06:03.936Z,18.30
2022-12-12T06:08:30.767Z,14.80
2022-12-12T06:10:57.912Z,19.20
2022-12-12T06:13:24.783Z,16.73
2022-12-12T06:15:51.845Z,16.07
2022-12-12T06:18:18.674Z,17.43
2022-12-12T06:20:45.722Z,15.07
2022-12-12T06:23:12.510Z,14.47
2022-12-12T06:25:39.536Z,17.47
2022-12-12T06:28:06.721Z,16.60
2022-12-12T06:30:33.931Z,13.90
2022-12-12T06:33:00.653Z,20.93
2022-12-12T06:35:27.634Z,14.73
2022-12-12T06:37:54.380Z,17.87
2022-12-12T06:40:22.198Z,20.57
2022-12-12T06:42:49.099Z,26.27
2022-12-12T06:45:16.971Z,21.70
2022-12-12T06:47:43.985Z,29.30
2022-12-12T06:50:11.781Z,25.63
2022-12-12T06:52:38.514Z,31.73
2022-12-12T06:55:05.909Z,29.53
2022-12-12T06:57:32.707Z,33.43
2022-12-12T06:59:59.840Z,30.63
2022-12-12T07:02:29.909Z,31.93
2022-12-12T07:04:58.305Z,28.27
2022-12-12T07:07:25.137Z,28.50
2022-12-12T07:09:52.576Z,29.17
2022-12-12T07:12:19.366Z,22.30
2022-12-12T07:14:46.489Z,27.00
2022-12-12T07:17:13.221Z,23.67
2022-12-12T07:19:40.302Z,23.93
2022-12-12T07:22:10.198Z,22.73
2022-12-12T07:24:38.054Z,21.93
2022-12-12T07:27:04.919Z,22.37
2022-12-12T07:29:32.084Z,23.70
2022-12-12T07:31:58.804Z,24.33
2022-12-12T07:34:28.695Z,33.80
2022-12-12T07:37:02.387Z,28.73
2022-12-12T07:39:34.297Z,26.20
2022-12-12T07:42:01.163Z,25.60
2022-12-12T07:44:28.411Z,20.63
2022-12-12T07:46:59.024Z,18.13
2022-12-12T07:49:27.911Z,19.07
2022-12-12T07:51:54.732Z,19.13
2022-12-12T07:54:21.775Z,19.77
2022-12-12T07:56:48.566Z,17.43
2022-12-12T07:59:15.551Z,16.90
2022-12-12T08:01:42.512Z,19.73
2022-12-12T08:04:09.797Z,16.30
2022-12-12T08:06:36.565Z,17.60
2022-12-12T08:09:04.571Z,15.53
2022-12-12T08:11:31.338Z,15.47
2022-12-12T08:13:58.458Z,17.47
2022-12-12T08:16:30.005Z,17.67
2022-12-12T08:18:58.491Z,18.87
2022-12-12T08:21:27.215Z,18.87
2022-12-12T08:24:02.219Z,17.17
2022-12-12T08:26:30.878Z,14.60
2022-12-12T08:28:58.684Z,14.63
2022-12-12T08:31:27.006Z,16.30
2022-12-12T08:33:54.864Z,17.57
2022-12-12T08:36:30.280Z,21.17
2022-12-12T08:39:08.203Z,17.87
2022-12-12T08:41:36.703Z,16.47
2022-12-12T08:44:04.098Z,18.63
2022-12-12T08:46:30.928Z,12.93
2022-12-12T08:48:58.035Z,9.57
2022-12-12T08:51:24.984Z,10.83
2022-12-12T08:53:53.157Z,8.90
2022-12-12T08:56:21.475Z,13.90
2022-12-12T08:58:49.124Z,8.53
2022-12-12T09:01:21.646Z,9.03
2022-12-12T09:03:50.432Z,9.73
2022-12-12T09:06:17.945Z,7.40
2022-12-12T09:08:45.837Z,7.87
2022-12-12T09:11:13.438Z,11.37
2022-12-12T09:13:41.132Z,8.73
2022-12-12T09:16:09.074Z,8.60
2022-12-12T09:18:37.498Z,10.37
2022-12-12T09:21:05.085Z,10.43
2022-12-12T09:23:32.530Z,9.30
2022-12-12T09:26:04.188Z,8.93
2022-12-12T09:28:31.328Z,8.50
2022-12-12T09:30:58.095Z,9.53
2022-12-12T09:33:25.188Z,7.43
2022-12-12T09:36:04.041Z,9.13
2022-12-12T09:38:31.575Z,8.73
2022-12-12T09:41:02.725Z,5.10
2022-12-12T09:43:34.162Z,7.87
2022-12-12T09:46:02.597Z,10.40
2022-12-12T09:48:44.718Z,11.33
2022-12-12T09:51:12.485Z,11.97
2022-12-12T09:53:41.867Z,11.30
2022-12-12T09:56:14.611Z,11.63
2022-12-12T09:59:00.235Z,8.80
2022-12-12T10:01:39.242Z,9.70
2022-12-12T10:04:42.491Z,7.37
2022-12-12T10:07:22.030Z,11.50
2022-12-12T10:09:56.383Z,10.73
2022-12-12T10:12:26.285Z,10.43
2022-12-12T10:15:00.652Z,10.53
2022-12-12T10:17:35.990Z,10.17
2022-12-12T10:20:15.643Z,8.43
2022-12-12T10:23:02.025Z,9.10
2022-12-12T10:25:41.685Z,17.10
2022-12-12T10:28:15.838Z,12.87
2022-12-12T10:31:02.005Z,10.17
2022-12-12T10:33:42.635Z,11.13
2022-12-12T10:36:14.240Z,13.27
2022-12-12T10:39:28.842Z,12.87
2022-12-12T10:42:23.617Z,9.87
2022-12-12T10:45:38.378Z,10.80
2022-12-12T10:48:05.632Z,10.33
2022-12-12T10:50:35.210Z,12.70
2022-12-12T10:53:05.166Z,10.70
2022-12-12T10:55:55.175Z,14.33
2022-12-12T10:58:27.080Z,14.30
2022-12-12T11:01:02.527Z,19.10
2022-12-12T11:03:35.303Z,16.40
2022-12-12T11:06:07.971Z,19.43
2022-12-12T11:08:36.504Z,15.03
2022-12-12T11:11:22.289Z,10.90
2022-12-12T11:13:53.662Z,12.07
2022-12-12T11:16:26.603Z,12.53
2022-12-12T11:19:06.662Z,12.53
2022-12-12T11:21:36.562Z,14.00
2022-12-12T11:24:08.838Z,14.53
2022-12-12T11:26:46.662Z,14.50
2022-12-12T11:29:47.251Z,13.73
2022-12-12T11:32:21.825Z,14.60
2022-12-12T11:34:55.735Z,10.73
2022-12-12T11:37:26.823Z,10.73
2022-12-12T11:39:56.014Z,12.23
2022-12-12T11:42:32.146Z,13.83
2022-12-12T11:45:10.449Z,11.50
2022-12-12T11:47:41.584Z,10.23
2022-12-12T11:50:26.857Z,7.37
2022-12-12T11:52:56.244Z,9.80
2022-12-12T11:55:37.080Z,14.43
2022-12-12T11:58:22.613Z,10.93
2022-12-12T12:01:08.205Z,15.00
2022-12-12T12:03:53.102Z,10.53
2022-12-12T12:06:51.792Z,12.63
2022-12-12T12:09:28.485Z,10.33
2022-12-12T12:12:14.111Z,11.53
2022-12-12T12:15:02.538Z,11.33
2022-12-12T12:17:57.927Z,11.57
2022-12-12T12:20:38.739Z,13.00
2022-12-12T12:23:27.715Z,13.37
2022-12-12T12:26:10.159Z,11.63
2022-12-12T12:28:52.515Z,14.30
2022-12-12T12:31:37.750Z,18.13
2022-12-12T12:34:26.427Z,19.63
2022-12-12T12:37:12.364Z,17.03
2022-12-12T12:40:07.697Z,13.60
2022-12-12T12:42:52.875Z,17.00
2022-12-12T12:45:49.306Z,13.83
2022-12-12T12:48:39.396Z,18.63
2022-12-12T12:51:13.712Z,14.15
2022-12-12T12:53:46.439Z,14.80
2022-12-12T12:56:29.408Z,12.77
2022-12-12T12:59:10.111Z,15.47
2022-12-12T13:01:44.260Z,18.30
2022-12-12T13:04:11.115Z,12.60
2022-12-12T13:07:13.503Z,13.50
2022-12-12T13:10:03.499Z,14.77
2022-12-12T13:12:37.226Z,12.10
2022-12-12T13:15:28.134Z,13.27
2022-12-12T13:18:04.419Z,13.33
2022-12-12T13:20:35.181Z,16.07
2022-12-12T13:23:36.387Z,13.10
2022-12-12T13:26:18.400Z,12.23
2022-12-12T13:28:57.391Z,16.03
2022-12-12T13:31:48.810Z,17.57
2022-12-12T13:34:20.750Z,17.13
2022-12-12T13:36:50.987Z,16.43
2022-12-12T13:39:26.490Z,20.70
2022-12-12T13:41:55.359Z,23.80
2022-12-12T13:44:42.256Z,30.90
2022-12-12T13:47:17.829Z,18.63
2022-12-12T13:49:50.637Z,16.50
2022-12-12T13:52:21.191Z,18.03
2022-12-12T13:54:48.932Z,13.23
2022-12-12T13:57:25.646Z,14.53
2022-12-12T13:59:52.668Z,12.77
2022-12-12T14:02:40.171Z,13.80
2022-12-12T14:05:14.177Z,19.37
2022-12-12T14:07:53.420Z,16.60
2022-12-12T14:10:28.128Z,15.53
2022-12-12T14:12:55.494Z,14.97
2022-12-12T14:15:32.602Z,19.07
2022-12-12T14:18:02.622Z,17.90
2022-12-12T14:20:36.335Z,17.83
2022-12-12T14:23:10.202Z,19.20
2022-12-12T14:25:41.095Z,20.90
2022-12-12T14:28:23.946Z,27.47
2022-12-12T14:31:08.783Z,26.63
2022-12-12T14:33:47.396Z,24.43
2022-12-12T14:36:33.318Z,26.87
2022-12-12T14:39:24.938Z,22.07
2022-12-12T14:41:54.231Z,24.33
2022-12-12T14:44:37.599Z,31.40
2022-12-12T14:47:09.184Z,36.03
2022-12-12T14:49:36.493Z,34.00
2022-12-12T14:52:04.986Z,35.40
2022-12-12T14:54:32.056Z,37.57
2022-12-12T14:57:00.487Z,36.60
2022-12-12T14:59:38.957Z,35.67
2022-12-12T15:02:38.692Z,41.33
2022-12-12T15:05:07.601Z,33.97
2022-12-12T15:07:38.506Z,29.77
2022-12-12T15:10:25.974Z,27.63
2022-12-12T15:12:53.038Z,30.13
2022-12-12T15:15:24.147Z,26.63
2022-12-12T15:17:51.675Z,32.20
2022-12-12T15:20:22.798Z,32.63
2022-12-12T15:23:00.712Z,27.20
2022-12-12T15:25:31.437Z,27.73
2022-12-12T15:27:59.237Z,30.70
2022-12-12T15:30:44.345Z,29.23
2022-12-12T15:33:29.586Z,28.43
2022-12-12T15:36:02.968Z,27.47
2022-12-12T15:38:32.380Z,28.50
2022-12-12T15:41:02.315Z,29.03
2022-12-12T15:43:31.023Z,25.53
2022-12-12T15:46:14.027Z,28.90
2022-12-12T15:48:49.522Z,34.10
2022-12-12T15:51:24.397Z,31.70
2022-12-12T15:53:53.826Z,40.13
2022-12-12T15:56:20.505Z,36.13
2022-12-12T15:58:51.908Z,39.63
2022-12-12T16:01:24.145Z,53.00
2022-12-12T16:04:06.483Z,34.80
2022-12-12T16:06:45.154Z,33.97
2022-12-12T16:09:12.154Z,36.87
2022-12-12T16:11:48.078Z,34.33
2022-12-12T16:14:39.539Z,29.07
2022-12-12T16:17:33.624Z,33.13
2022-12-12T16:20:16.332Z,24.63
2022-12-12T16:22:48.633Z,20.83
2022-12-12T16:25:28.133Z,25.03
2022-12-12T16:27:59.138Z,21.47
2022-12-12T16:30:27.347Z,23.53
2022-12-12T16:32:54.631Z,22.27
2022-12-12T16:35:23.757Z,27.17
2022-12-12T16:37:52.501Z,27.47
2022-12-12T16:40:21.477Z,23.73
2022-12-12T16:42:59.532Z,30.30
2022-12-12T16:45:26.735Z,35.20
2022-12-12T16:47:53.728Z,34.33
2022-12-12T16:50:20.764Z,28.00
2022-12-12T16:52:47.650Z,31.70
2022-12-12T16:55:22.412Z,31.10
2022-12-12T16:57:49.247Z,32.67
2022-12-12T17:00:17.133Z,33.43
2022-12-12T17:02:44.353Z,33.37
2022-12-12T17:05:20.582Z,30.80
2022-12-12T17:07:47.427Z,29.70
2022-12-12T17:10:14.883Z,28.90
2022-12-12T17:12:41.741Z,34.70
2022-12-12T17:15:21.323Z,36.93
2022-12-12T17:17:48.104Z,33.00
2022-12-12T17:20:16.358Z,34.87
2022-12-12T17:22:44.401Z,37.17
2022-12-12T17:25:12.309Z,35.87
2022-12-12T17:27:39.051Z,29.80
2022-12-12T17:30:07.534Z,31.27
2022-12-12T17:32:35.303Z,33.37
2022-12-12T17:35:02.984Z,34.70
2022-12-12T17:37:29.784Z,33.23
2022-12-12T17:39:56.784Z,34.97
2022-12-12T17:42:23.574Z,37.03
2022-12-12T17:44:50.719Z,36.93
2022-12-12T17:47:17.589Z,37.03
2022-12-12T17:49:47.313Z,37.00
2022-12-12T17:52:14.566Z,35.20
2022-12-12T17:54:41.765Z,31.57
2022-12-12T17:57:09.503Z,32.13
2022-12-12T17:59:36.526Z,41.20
2022-12-12T18:02:03.465Z,32.70
2022-12-12T18:04:31.189Z,30.83
2022-12-12T18:06:58.015Z,30.90
2022-12-12T18:09:26.054Z,29.90
2022-12-12T18:11:52.888Z,33.03
2022-12-12T18:14:19.933Z,41.17
2022-12-12T18:16:50.976Z,32.23
2022-12-12T18:19:19.727Z,25.70
2022-12-12T18:22:02.748Z,29.40
2022-12-12T18:24:30.365Z,20.73
2022-12-12T18:26:58.769Z,20.40
2022-12-12T18:29:26.905Z,25.53
2022-12-12T18:31:53.854Z,25.50
2022-12-12T18:34:21.091Z,31.77
2022-12-12T18:36:49.308Z,27.23
2022-12-12T18:39:16.951Z,29.27
2022-12-12T18:41:43.789Z,39.03
2022-12-12T18:44:13.803Z,47.17
2022-12-12T18:46:43.354Z,36.43
2022-12-12T18:49:15.859Z,36.47
2022-12-12T18:51:46.341Z,29.93
2022-12-12T18:54:16.202Z,39.87
2022-12-12T18:56:47.221Z,34.30
2022-12-12T18:59:15.693Z,30.57
2022-12-12T19:01:42.653Z,27.60
2022-12-12T19:04:13.426Z,29.60
2022-12-12T19:06:42.400Z,30.93
2022-12-12T19:09:15.320Z,26.53
2022-12-12T19:11:43.161Z,24.87
2022-12-12T19:14:11.629Z,23.03
2022-12-12T19:16:38.515Z,22.57
2022-12-12T19:19:06.441Z,22.50
2022-12-12T19:21:36.425Z,18.07
2022-12-12T19:24:04.797Z,20.87
2022-12-12T19:26:31.611Z,26.20
2022-12-12T19:29:04.531Z,26.30
2022-12-12T19:31:35.967Z,28.10
2022-12-12T19:34:06.661Z,28.10
2022-12-12T19:36:34.474Z,27.80
2022-12-12T19:39:04.900Z,31.80
2022-12-12T19:41:31.907Z,31.03
2022-12-12T19:44:04.202Z,31.33
2022-12-12T19:46:32.276Z,30.97
2022-12-12T19:49:07.372Z,27.87
2022-12-12T19:51:39.389Z,30.27
2022-12-12T19:54:09.976Z,31.43
2022-12-12T19:56:40.907Z,30.60
2022-12-12T19:59:08.957Z,29.37
2022-12-12T20:01:36.647Z,31.63
2022-12-12T20:04:05.569Z,29.97
2022-12-12T20:06:40.977Z,28.43
2022-12-12T20:09:10.223Z,38.10
2022-12-12T20:11:38.393Z,35.17
2022-12-12T20:14:05.769Z,31.40
2022-12-12T20:16:32.806Z,28.80
2022-12-12T20:18:59.851Z,27.13
2022-12-12T20:21:59.611Z,24.30
2022-12-12T20:24:17.166Z,21.83
2022-12-12T20:26:45.026Z,21.60
2022-12-12T20:29:13.752Z,20.93
2022-12-12T20:31:43.595Z,21.73
2022-12-12T20:34:13.701Z,19.40
2022-12-12T20:36:41.654Z,20.23
2022-12-12T20:39:12.725Z,17.23
2022-12-12T20:41:40.016Z,19.17
2022-12-12T20:44:08.737Z,21.40
2022-12-12T20:46:38.407Z,26.47
2022-12-12T20:49:12.917Z,21.20
2022-12-12T20:51:57.027Z,15.03
2022-12-12T20:54:26.697Z,28.03
2022-12-12T20:56:54.374Z,25.87
2022-12-12T20:59:21.756Z,22.17
2022-12-12T21:01:48.568Z,42.30
2022-12-12T21:04:15.798Z,34.03
2022-12-12T21:06:44.936Z,31.77
2022-12-12T21:09:16.175Z,29.83
2022-12-12T21:11:46.207Z,26.70
2022-12-12T21:14:13.346Z,24.40
2022-12-12T21:16:40.981Z,21.10
2022-12-12T21:19:11.502Z,21.27
2022-12-12T21:21:39.625Z,21.07
2022-12-12T21:24:07.429Z,22.70
2022-12-12T21:26:34.935Z,26.83
2022-12-12T21:29:02.589Z,28.70
2022-12-12T21:31:32.650Z,28.80
2022-12-12T21:34:00.294Z,24.90
2022-12-12T21:36:28.162Z,30.00
2022-12-12T21:38:56.987Z,31.37
2022-12-12T21:41:24.843Z,27.30
2022-12-12T21:43:52.661Z,24.83
2022-12-12T21:46:22.253Z,25.57
2022-12-12T21:49:08.350Z,21.73
2022-12-12T21:51:35.581Z,22.90
2022-12-12T21:54:03.958Z,15.57
2022-12-12T21:56:31.353Z,15.87
2022-12-12T21:58:59.162Z,20.80
2022-12-12T22:01:26.681Z,30.17
2022-12-12T22:03:54.861Z,26.20
2022-12-12T22:06:26.791Z,20.90
2022-12-12T22:08:55.441Z,29.43
2022-12-12T22:11:40.368Z,38.30
2022-12-12T22:14:10.718Z,35.70
2022-12-12T22:16:37.702Z,36.47
2022-12-12T22:19:08.077Z,24.20
2022-12-12T22:21:35.290Z,26.23
2022-12-12T22:24:03.209Z,20.73
2022-12-12T22:26:33.432Z,23.10
2022-12-12T22:29:03.836Z,27.23
2022-12-12T22:31:32.987Z,20.70
2022-12-12T22:34:02.795Z,19.60
2022-12-12T22:36:31.961Z,22.17
2022-12-12T22:39:00.364Z,18.37
2022-12-12T22:41:29.231Z,24.13
2022-12-12T22:43:58.635Z,19.13
2022-12-12T22:46:26.382Z,16.87
2022-12-12T22:48:56.151Z,22.03
2022-12-12T22:51:25.344Z,18.97
2022-12-12T22:53:58.284Z,22.80
2022-12-12T22:56:25.402Z,19.57
2022-12-12T22:58:52.643Z,16.83
2022-12-12T23:01:21.786Z,18.63
2022-12-12T23:03:49.162Z,14.43
2022-12-12T23:06:22.239Z,16.50
2022-12-12T23:08:57.765Z,16.97
2022-12-12T23:11:26.464Z,17.63
2022-12-12T23:13:55.587Z,22.57
2022-12-12T23:16:31.085Z,16.50
2022-12-12T23:18:58.998Z,15.90
2022-12-12T23:21:26.481Z,17.23
2022-12-12T23:23:54.673Z,14.07
2022-12-12T23:26:26.285Z,16.53
2022-12-12T23:28:53.371Z,13.50
2022-12-12T23:31:23.960Z,15.70
2022-12-12T23:34:00.734Z,16.30
2022-12-12T23:36:28.460Z,15.87
2022-12-12T23:39:01.435Z,15.87
2022-12-12T23:41:28.854Z,15.30
2022-12-12T23:43:56.578Z,13.50
2022-12-12T23:46:31.436Z,14.43
2022-12-12T23:49:01.521Z,13.63
2022-12-12T23:51:30.938Z,14.53
2022-12-12T23:53:59.687Z,15.47
2022-12-12T23:56:26.764Z,15.20
2022-12-12T23:58:55.756Z,13.57
